createdAt,value
2023-03-10T00:01:40.015Z,98411.64
2023-03-10T00:04:37.437Z,98409.60
2023-03-10T00:07:07.280Z,98411.39
2023-03-10T00:09:37.286Z,98409.00
2023-03-10T00:12:06.572Z,98408.56
2023-03-10T00:14:36.838Z,98406.64
2023-03-10T00:17:30.480Z,98408.16
2023-03-10T00:20:07.393Z,98413.60
2023-03-10T00:22:41.399Z,98415.57
2023-03-10T00:25:10.357Z,98421.60
2023-03-10T00:27:42.584Z,98426.34
2023-03-10T00:30:13.618Z,98425.55
2023-03-10T00:32:50.421Z,98429.70
2023-03-10T00:35:22.775Z,98432.70
2023-03-10T00:37:51.122Z,98437.41
2023-03-10T00:40:23.694Z,98437.57
2023-03-10T00:42:58.962Z,98438.36
2023-03-10T00:45:27.988Z,98441.63
2023-03-10T00:47:58.901Z,98444.12
2023-03-10T00:50:53.571Z,98441.56
2023-03-10T00:53:27.193Z,98439.41
2023-03-10T00:56:14.091Z,98453.85
2023-03-10T00:58:43.495Z,98453.26
2023-03-10T01:01:34.418Z,98456.09
2023-03-10T01:04:09.551Z,98454.16
2023-03-10T01:06:39.782Z,98453.08
2023-03-10T01:09:10.889Z,98455.15
2023-03-10T01:11:44.806Z,98458.66
2023-03-10T01:14:14.675Z,98459.00
2023-03-10T01:16:42.858Z,98462.06
2023-03-10T01:19:15.526Z,98463.25
2023-03-10T01:21:43.732Z,98466.20
2023-03-10T01:24:14.809Z,98464.52
2023-03-10T01:26:44.680Z,98469.26
2023-03-10T01:29:15.972Z,98470.73
2023-03-10T01:31:48.254Z,98474.55
2023-03-10T01:34:16.062Z,98474.72
2023-03-10T01:36:46.341Z,98476.92
2023-03-10T01:39:16.734Z,98478.23
2023-03-10T01:41:43.941Z,98478.59
2023-03-10T01:44:17.494Z,98483.71
2023-03-10T01:46:49.996Z,98486.72
2023-03-10T01:49:25.997Z,98492.36
2023-03-10T01:52:15.583Z,98499.13
2023-03-10T01:54:56.201Z,98501.27
2023-03-10T01:57:25.259Z,98505.78
2023-03-10T01:59:55.629Z,98504.44
2023-03-10T02:02:25.107Z,98510.13
2023-03-10T02:04:55.831Z,98511.95
2023-03-10T02:07:28.234Z,98515.70
2023-03-10T02:09:59.928Z,98512.83
2023-03-10T02:12:38.900Z,98515.26
2023-03-10T02:15:10.534Z,98526.71
2023-03-10T02:17:42.995Z,98532.20
2023-03-10T02:20:31.129Z,98546.00
2023-03-10T02:23:01.066Z,98555.05
2023-03-10T02:25:52.804Z,98566.52
2023-03-10T02:28:46.750Z,98575.67
2023-03-10T02:31:17.528Z,98584.77
2023-03-10T02:33:47.390Z,98587.73
2023-03-10T02:36:21.166Z,98599.58
2023-03-10T02:38:51.614Z,98611.71
2023-03-10T02:41:29.277Z,98621.83
2023-03-10T02:44:00.266Z,98621.16
2023-03-10T02:46:32.088Z,98637.22
2023-03-10T02:49:04.903Z,98633.44
2023-03-10T02:51:42.354Z,98648.36
2023-03-10T02:54:16.832Z,98653.39
2023-03-10T02:56:46.699Z,98659.27
2023-03-10T02:59:16.012Z,98677.79
2023-03-10T03:01:50.462Z,98691.54
2023-03-10T03:04:21.026Z,98697.38
2023-03-10T03:06:48.800Z,98702.80
2023-03-10T03:09:20.871Z,98716.16
2023-03-10T03:11:48.506Z,98731.02
2023-03-10T03:14:19.662Z,98745.37
2023-03-10T03:16:50.234Z,98745.21
2023-03-10T03:21:20.836Z,98795.19
2023-03-10T03:23:52.335Z,98783.07
2023-03-10T03:26:26.437Z,98784.04
2023-03-10T03:28:59.849Z,98801.23
2023-03-10T03:31:38.396Z,98793.38
2023-03-10T03:34:15.318Z,98809.10
2023-03-10T03:36:47.577Z,98822.05
2023-03-10T03:39:20.073Z,98831.63
2023-03-10T03:41:56.880Z,98840.98
2023-03-10T03:44:30.328Z,98838.95
2023-03-10T03:46:59.664Z,98853.89
2023-03-10T03:49:34.989Z,98862.21
2023-03-10T03:52:03.632Z,98890.36
2023-03-10T03:54:36.550Z,98869.47
2023-03-10T03:57:06.296Z,98875.73
2023-03-10T03:59:40.277Z,98884.81
2023-03-10T04:02:10.723Z,98890.61
2023-03-10T04:04:43.524Z,98879.48
2023-03-10T04:07:11.754Z,98884.95
2023-03-10T04:09:43.011Z,98893.84
2023-03-10T04:12:17.655Z,98881.75
2023-03-10T04:14:49.350Z,98893.17
2023-03-10T04:17:18.838Z,98896.11
2023-03-10T04:20:06.284Z,98904.11
2023-03-10T04:22:43.387Z,98914.64
2023-03-10T04:25:12.588Z,98915.16
2023-03-10T04:27:41.025Z,98919.09
2023-03-10T04:30:13.350Z,98922.73
2023-03-10T04:32:49.307Z,98936.69
2023-03-10T04:35:25.670Z,98929.67
2023-03-10T04:37:58.664Z,98944.92
2023-03-10T04:40:27.459Z,98951.44
2023-03-10T04:42:55.036Z,98955.23
2023-03-10T04:45:24.339Z,98957.40
2023-03-10T04:47:52.856Z,98960.80
2023-03-10T04:50:23.531Z,98973.93
2023-03-10T04:52:52.188Z,98967.56
2023-03-10T04:55:24.851Z,98977.64
2023-03-10T04:57:55.858Z,98997.15
2023-03-10T05:00:31.803Z,98993.30
2023-03-10T05:03:04.292Z,99009.66
2023-03-10T05:05:37.416Z,99007.27
2023-03-10T05:08:13.600Z,99012.30
2023-03-10T05:10:44.939Z,99005.37
2023-03-10T05:13:16.410Z,99025.73
2023-03-10T05:15:55.052Z,99034.52
2023-03-10T05:18:25.679Z,99045.56
2023-03-10T05:20:57.095Z,99041.19
2023-03-10T05:23:25.685Z,99056.58
2023-03-10T05:25:55.597Z,99050.61
2023-03-10T05:28:38.939Z,99059.00
2023-03-10T05:31:14.557Z,99050.91
2023-03-10T05:33:44.705Z,99056.04
2023-03-10T05:36:15.468Z,99067.96
2023-03-10T05:38:44.838Z,99069.36
2023-03-10T05:41:17.827Z,99065.06
2023-03-10T05:43:52.445Z,99065.05
2023-03-10T05:46:23.956Z,99070.89
2023-03-10T05:48:56.025Z,99081.63
2023-03-10T05:51:27.754Z,99073.52
2023-03-10T05:53:56.019Z,99091.42
2023-03-10T05:56:30.920Z,99081.52
2023-03-10T05:59:02.527Z,99076.69
2023-03-10T06:01:37.910Z,99080.43
2023-03-10T06:04:06.280Z,99085.17
2023-03-10T06:06:47.525Z,99086.21
2023-03-10T06:09:24.506Z,99088.11
2023-03-10T06:12:00.855Z,99099.23
2023-03-10T06:14:32.450Z,99094.36
2023-03-10T06:17:03.008Z,99099.91
2023-03-10T06:19:42.034Z,99104.40
2023-03-10T06:22:11.680Z,99113.05
2023-03-10T06:24:40.275Z,99109.40
2023-03-10T06:27:12.031Z,99114.84
2023-03-10T06:29:40.837Z,99124.45
2023-03-10T06:32:12.258Z,99133.81
2023-03-10T06:34:43.223Z,99149.70
2023-03-10T06:37:12.060Z,99157.27
2023-03-10T06:39:42.097Z,99158.58
2023-03-10T06:42:12.022Z,99171.27
2023-03-10T06:44:49.389Z,99168.81
2023-03-10T06:47:20.638Z,99202.66
2023-03-10T06:49:54.229Z,99204.84
2023-03-10T06:52:31.153Z,99198.78
2023-03-10T06:55:29.861Z,99190.73
2023-03-10T06:58:06.090Z,99192.20
2023-03-10T07:00:39.861Z,99199.63
2023-03-10T07:03:11.913Z,99194.44
2023-03-10T07:05:48.101Z,99206.71
2023-03-10T07:08:26.406Z,99204.42
2023-03-10T07:11:00.448Z,99215.16
2023-03-10T07:13:34.649Z,99214.00
2023-03-10T07:16:05.793Z,99218.55
2023-03-10T07:18:37.440Z,99212.80
2023-03-10T07:21:10.772Z,99203.55
2023-03-10T07:23:41.450Z,99202.89
2023-03-10T07:26:13.926Z,99199.73
2023-03-10T07:28:46.503Z,99199.38
2023-03-10T07:31:17.360Z,99218.20
2023-03-10T07:33:52.524Z,99216.70
2023-03-10T07:36:25.923Z,99219.37
2023-03-10T07:39:01.506Z,99217.83
2023-03-10T07:41:30.939Z,99213.36
2023-03-10T07:43:59.102Z,99229.61
2023-03-10T07:46:28.093Z,99219.66
2023-03-10T07:49:00.605Z,99222.23
2023-03-10T07:52:14.810Z,99233.88
2023-03-10T07:54:50.651Z,99247.16
2023-03-10T07:57:32.407Z,99255.83
2023-03-10T08:00:02.588Z,99258.56
2023-03-10T08:02:46.249Z,99268.90
2023-03-10T08:05:21.712Z,99271.65
2023-03-10T08:07:52.132Z,99280.70
2023-03-10T08:10:21.206Z,99275.97
2023-03-10T08:12:54.208Z,99271.16
2023-03-10T08:15:47.898Z,99272.23
2023-03-10T08:18:16.968Z,99273.89
2023-03-10T08:20:44.835Z,99274.58
2023-03-10T08:23:28.177Z,99274.73
2023-03-10T08:26:00.743Z,99279.10
2023-03-10T08:31:26.375Z,99288.90
2023-03-10T08:34:05.546Z,99293.17
2023-03-10T08:36:40.251Z,99286.08
2023-03-10T08:39:08.250Z,99290.70
2023-03-10T08:42:37.324Z,99283.98
2023-03-10T08:45:13.659Z,99288.83
2023-03-10T08:48:38.571Z,99288.67
2023-03-10T08:51:09.570Z,99285.24
2023-03-10T08:53:39.281Z,99297.97
2023-03-10T08:57:00.348Z,99307.86
2023-03-10T09:00:26.593Z,99304.52
2023-03-10T09:02:57.626Z,99299.01
2023-03-10T09:05:39.395Z,99297.17
2023-03-10T09:08:40.163Z,99295.85
2023-03-10T09:11:09.439Z,99293.48
2023-03-10T09:14:16.747Z,99284.39
2023-03-10T09:16:50.609Z,99282.45
2023-03-10T09:19:25.976Z,99289.45
2023-03-10T09:22:02.340Z,99290.36
2023-03-10T09:24:35.956Z,99302.88
2023-03-10T09:27:26.225Z,99312.17
2023-03-10T09:30:30.566Z,99325.71
2023-03-10T09:33:04.494Z,99320.86
2023-03-10T09:35:34.307Z,99315.59
2023-03-10T09:38:12.413Z,99303.39
2023-03-10T09:40:48.624Z,99296.50
2023-03-10T09:43:55.595Z,99302.11
2023-03-10T09:47:12.696Z,99316.98
2023-03-10T09:50:16.297Z,99320.52
2023-03-10T09:53:16.093Z,99320.59
2023-03-10T09:55:52.665Z,99318.17
2023-03-10T09:58:48.343Z,99315.17
2023-03-10T10:01:21.140Z,99315.83
2023-03-10T10:04:39.376Z,99313.38
2023-03-10T10:07:20.751Z,99312.11
2023-03-10T10:10:21.112Z,99316.20
2023-03-10T10:12:57.647Z,99322.64
2023-03-10T10:15:27.833Z,99322.46
2023-03-10T10:18:25.590Z,99319.23
2023-03-10T10:21:41.776Z,99317.05
2023-03-10T10:24:54.650Z,99315.64
2023-03-10T10:27:27.732Z,99312.39
2023-03-10T10:30:34.901Z,99310.33
2023-03-10T10:33:12.233Z,99299.50
2023-03-10T10:35:45.804Z,99289.19
2023-03-10T10:38:15.337Z,99292.25
2023-03-10T10:41:19.583Z,99283.64
2023-03-10T10:43:51.813Z,99282.98
2023-03-10T10:46:34.149Z,99285.29
2023-03-10T10:49:35.032Z,99285.14
2023-03-10T10:52:20.229Z,99288.42
2023-03-10T10:54:58.411Z,99294.35
2023-03-10T10:57:35.874Z,99295.13
2023-03-10T11:00:18.024Z,99290.73
2023-03-10T11:02:52.547Z,99291.38
2023-03-10T11:05:31.395Z,99288.30
2023-03-10T11:08:18.822Z,99287.44
2023-03-10T11:10:53.402Z,99286.09
2023-03-10T11:13:28.980Z,99291.24
2023-03-10T11:16:16.428Z,99299.97
2023-03-10T11:19:25.290Z,99297.00
2023-03-10T11:21:59.138Z,99302.67
2023-03-10T11:24:41.030Z,99292.65
2023-03-10T11:27:39.424Z,99297.38
2023-03-10T11:30:17.276Z,99292.02
2023-03-10T11:33:14.771Z,99290.65
2023-03-10T11:35:55.112Z,99288.20
2023-03-10T11:38:42.780Z,99287.45
2023-03-10T11:41:22.838Z,99283.05
2023-03-10T11:44:22.649Z,99269.10
2023-03-10T11:46:58.960Z,99280.33
2023-03-10T11:49:39.673Z,99279.30
2023-03-10T11:52:17.483Z,99282.58
2023-03-10T11:54:49.835Z,99281.35
2023-03-10T11:57:45.472Z,99280.70
2023-03-10T12:00:26.910Z,99279.23
2023-03-10T12:03:18.161Z,99282.19
2023-03-10T12:05:59.113Z,99278.83
2023-03-10T12:08:36.718Z,99279.58
2023-03-10T12:11:34.672Z,99278.14
2023-03-10T12:14:05.693Z,99274.25
2023-03-10T12:16:39.204Z,99268.61
2023-03-10T12:19:11.206Z,99261.89
2023-03-10T12:21:47.195Z,99259.88
2023-03-10T12:24:42.466Z,99258.53
2023-03-10T12:27:15.745Z,99258.06
2023-03-10T12:29:45.870Z,99259.53
2023-03-10T12:32:41.898Z,99265.34
2023-03-10T12:35:33.142Z,99268.63
2023-03-10T12:38:29.814Z,99272.95
2023-03-10T12:40:58.953Z,99274.29
2023-03-10T12:43:52.085Z,99275.48
2023-03-10T12:46:41.876Z,99274.91
2023-03-10T12:49:41.508Z,99274.89
2023-03-10T12:52:29.928Z,99277.65
2023-03-10T12:55:24.502Z,99275.68
2023-03-10T12:58:24.035Z,99269.80
2023-03-10T13:01:19.893Z,99263.77
2023-03-10T13:03:56.760Z,99257.44
2023-03-10T13:06:40.786Z,99251.96
2023-03-10T13:09:36.936Z,99248.43
2023-03-10T13:12:16.939Z,99243.56
2023-03-10T13:14:50.247Z,99234.64
2023-03-10T13:17:23.319Z,99228.82
2023-03-10T13:19:57.084Z,99227.45
2023-03-10T13:22:26.205Z,99229.39
2023-03-10T13:25:15.039Z,99233.42
2023-03-10T13:27:46.437Z,99236.44
2023-03-10T13:30:21.476Z,99229.98
2023-03-10T13:32:57.977Z,99224.56
2023-03-10T13:35:29.954Z,99213.98
2023-03-10T13:38:20.363Z,99208.77
2023-03-10T13:41:01.938Z,99214.72
2023-03-10T13:43:38.491Z,99223.23
2023-03-10T13:46:26.243Z,99217.23
2023-03-10T13:48:57.769Z,99203.52
2023-03-10T13:51:32.231Z,99205.33
2023-03-10T13:54:43.234Z,99203.29
2023-03-10T13:57:31.656Z,99198.56
2023-03-10T14:00:09.007Z,99197.74
2023-03-10T14:02:50.375Z,99196.59
2023-03-10T14:05:46.232Z,99197.38
2023-03-10T14:08:27.618Z,99191.32
2023-03-10T14:11:33.964Z,99185.67
2023-03-10T14:14:02.169Z,99184.14
2023-03-10T14:16:54.209Z,99186.23
2023-03-10T14:19:43.001Z,99185.20
2023-03-10T14:22:30.089Z,99182.15
2023-03-10T14:25:00.430Z,99187.70
2023-03-10T14:27:30.151Z,99193.56
2023-03-10T14:30:01.864Z,99199.98
2023-03-10T14:32:34.569Z,99208.27
2023-03-10T14:35:10.385Z,99201.91
2023-03-10T14:38:07.146Z,99200.11
2023-03-10T14:40:40.301Z,99199.77
2023-03-10T14:43:13.695Z,99208.38
2023-03-10T14:45:44.067Z,99214.02
2023-03-10T14:48:19.826Z,99216.15
2023-03-10T14:50:56.278Z,99220.77
2023-03-10T14:53:26.629Z,99223.34
2023-03-10T14:55:57.763Z,99226.55
2023-03-10T14:58:32.200Z,99226.13
2023-03-10T15:01:00.767Z,99228.30
2023-03-10T15:03:34.165Z,99224.52
2023-03-10T15:06:06.201Z,99224.90
2023-03-10T15:08:52.369Z,99222.38
2023-03-10T15:11:37.118Z,99215.75
2023-03-10T15:14:25.610Z,99215.96
2023-03-10T15:17:05.220Z,99224.95
2023-03-10T15:19:37.389Z,99234.20
2023-03-10T15:22:09.002Z,99235.09
2023-03-10T15:24:45.402Z,99237.77
2023-03-10T15:27:23.140Z,99236.91
2023-03-10T15:29:55.495Z,99241.80
2023-03-10T15:32:55.435Z,99239.62
2023-03-10T15:35:28.741Z,99240.48
2023-03-10T15:39:25.521Z,99239.17
2023-03-10T15:42:04.767Z,99239.22
2023-03-10T15:44:34.695Z,99238.64
2023-03-10T15:47:10.280Z,99242.23
2023-03-10T15:49:45.071Z,99241.66
2023-03-10T15:52:17.461Z,99236.92
2023-03-10T15:54:46.523Z,99232.33
2023-03-10T15:57:16.028Z,99225.27
2023-03-10T15:59:44.938Z,99225.05
2023-03-10T16:02:15.031Z,99225.57
2023-03-10T16:04:44.330Z,99219.38
2023-03-10T16:07:17.313Z,99229.02
2023-03-10T16:09:51.314Z,99231.90
2023-03-10T16:12:22.964Z,99229.25
2023-03-10T16:14:59.521Z,99229.64
2023-03-10T16:17:31.510Z,99228.30
2023-03-10T16:20:11.910Z,99230.49
2023-03-10T16:22:42.569Z,99234.39
2023-03-10T16:25:18.490Z,99241.82
2023-03-10T16:27:47.159Z,99243.23
2023-03-10T16:30:17.051Z,99237.81
2023-03-10T16:32:54.099Z,99238.20
2023-03-10T16:35:21.902Z,99233.89
2023-03-10T16:37:51.330Z,99233.42
2023-03-10T16:40:22.413Z,99235.44
2023-03-10T16:42:56.328Z,99235.31
2023-03-10T16:45:27.016Z,99241.49
2023-03-10T16:47:56.548Z,99241.28
2023-03-10T16:50:26.231Z,99236.67
2023-03-10T16:52:56.352Z,99235.30
2023-03-10T16:55:26.692Z,99235.48
2023-03-10T16:57:54.274Z,99237.86
2023-03-10T17:00:23.913Z,99235.61
2023-03-10T17:02:53.728Z,99234.17
2023-03-10T17:05:22.724Z,99236.59
2023-03-10T17:08:01.982Z,99236.25
2023-03-10T17:10:30.740Z,99233.70
2023-03-10T17:13:00.706Z,99227.12
2023-03-10T17:15:32.720Z,99221.34
2023-03-10T17:18:02.664Z,99211.98
2023-03-10T17:20:38.772Z,99202.18
2023-03-10T17:23:52.756Z,99196.08
2023-03-10T17:26:27.373Z,99192.34
2023-03-10T17:28:58.998Z,99193.65
2023-03-10T17:32:49.208Z,99194.19
2023-03-10T17:35:18.033Z,99193.73
2023-03-10T17:37:51.628Z,99203.67
2023-03-10T17:40:37.726Z,99209.26
2023-03-10T17:43:17.637Z,99208.13
2023-03-10T17:46:07.579Z,99208.67
2023-03-10T17:48:43.895Z,99215.90
2023-03-10T17:51:16.760Z,99219.08
2023-03-10T17:53:53.815Z,99217.92
2023-03-10T17:56:51.799Z,99222.23
2023-03-10T17:59:26.962Z,99229.77
2023-03-10T18:02:02.197Z,99232.80
2023-03-10T18:04:35.244Z,99236.18
2023-03-10T18:07:04.046Z,99243.80
2023-03-10T18:09:51.114Z,99247.17
2023-03-10T18:12:24.612Z,99247.06
2023-03-10T18:14:55.860Z,99248.45
2023-03-10T18:17:31.768Z,99244.81
2023-03-10T18:20:14.106Z,99244.66
2023-03-10T18:23:12.637Z,99238.66
2023-03-10T18:25:48.466Z,99232.92
2023-03-10T18:28:20.747Z,99230.18
2023-03-10T18:31:22.017Z,99228.51
2023-03-10T18:34:15.256Z,99226.77
2023-03-10T18:36:43.956Z,99222.88
2023-03-10T18:39:27.254Z,99219.37
2023-03-10T18:41:56.852Z,99220.55
2023-03-10T18:44:27.606Z,99215.11
2023-03-10T18:47:05.899Z,99211.16
2023-03-10T18:49:39.750Z,99207.18
2023-03-10T18:52:15.734Z,99206.30
2023-03-10T18:54:47.223Z,99200.90
2023-03-10T18:57:21.992Z,99202.42
2023-03-10T18:59:51.921Z,99205.02
2023-03-10T19:02:27.981Z,99203.91
2023-03-10T19:05:25.791Z,99197.73
2023-03-10T19:08:03.893Z,99195.58
2023-03-10T19:10:33.016Z,99191.69
2023-03-10T19:13:02.638Z,99191.48
2023-03-10T19:15:34.177Z,99187.34
2023-03-10T19:18:24.375Z,99189.14
2023-03-10T19:20:59.901Z,99188.55
2023-03-10T19:23:32.676Z,99185.77
2023-03-10T19:26:02.102Z,99185.95
2023-03-10T19:28:34.254Z,99180.58
2023-03-10T19:31:15.777Z,99177.73
2023-03-10T19:33:49.874Z,99169.98
2023-03-10T19:36:45.115Z,99164.52
2023-03-10T19:39:48.307Z,99158.62
2023-03-10T19:42:47.154Z,99159.98
2023-03-10T19:45:49.014Z,99161.80
2023-03-10T19:48:47.762Z,99158.91
2023-03-10T19:51:29.971Z,99171.55
2023-03-10T19:54:04.859Z,99165.10
2023-03-10T19:56:37.182Z,99164.77
2023-03-10T19:59:09.744Z,99160.92
2023-03-10T20:01:48.242Z,99153.44
2023-03-10T20:04:18.349Z,99150.55
2023-03-10T20:06:46.339Z,99149.91
2023-03-10T20:09:22.094Z,99149.66
2023-03-10T20:11:58.976Z,99156.48
2023-03-10T20:14:27.933Z,99157.31
2023-03-10T20:20:20.011Z,99158.75
2023-03-10T20:22:50.464Z,99157.38
2023-03-10T20:25:27.607Z,99150.54
2023-03-10T20:27:58.676Z,99148.53
2023-03-10T20:30:55.844Z,99147.66
2023-03-10T20:33:25.968Z,99143.86
2023-03-10T20:35:55.509Z,99133.88
2023-03-10T20:38:54.061Z,99135.19
2023-03-10T20:41:29.527Z,99135.03
2023-03-10T20:44:09.023Z,99133.07
2023-03-10T20:46:45.148Z,99131.65
2023-03-10T20:49:18.325Z,99125.38
2023-03-10T20:51:49.354Z,99130.18
2023-03-10T20:54:45.708Z,99122.61
2023-03-10T20:57:18.393Z,99120.00
2023-03-10T20:59:53.619Z,99120.74
2023-03-10T21:02:23.428Z,99120.84
2023-03-10T21:04:54.845Z,99116.66
2023-03-10T21:07:22.701Z,99116.38
2023-03-10T21:09:53.354Z,99103.23
2023-03-10T21:12:56.634Z,99097.38
2023-03-10T21:15:35.158Z,99097.05
2023-03-10T21:18:06.454Z,99090.56
2023-03-10T21:20:40.401Z,99088.73
2023-03-10T21:23:14.607Z,99084.82
2023-03-10T21:25:53.670Z,99089.52
2023-03-10T21:28:24.761Z,99086.29
2023-03-10T21:30:56.084Z,99085.69
2023-03-10T21:33:27.575Z,99089.17
2023-03-10T21:36:10.588Z,99087.72
2023-03-10T21:39:45.773Z,99081.61
2023-03-10T21:42:18.083Z,99078.64
2023-03-10T21:44:52.239Z,99069.64
2023-03-10T21:47:22.977Z,99065.05
2023-03-10T21:49:59.864Z,99062.44
2023-03-10T21:52:34.613Z,99054.59
2023-03-10T21:55:04.407Z,99053.26
2023-03-10T21:57:38.861Z,99052.50
2023-03-10T22:00:12.105Z,99052.85
2023-03-10T22:02:42.660Z,99047.48
2023-03-10T22:05:14.133Z,99040.71
2023-03-10T22:07:47.683Z,99036.69
2023-03-10T22:10:19.780Z,99042.05
2023-03-10T22:12:54.943Z,99040.77
2023-03-10T22:15:31.303Z,99034.64
2023-03-10T22:21:39.057Z,99028.68
2023-03-10T22:24:08.770Z,99023.55
2023-03-10T22:26:38.281Z,99019.28
2023-03-10T22:29:08.064Z,99013.65
2023-03-10T22:31:35.740Z,99011.53
2023-03-10T22:34:04.231Z,99017.38
2023-03-10T22:36:35.106Z,99014.59
2023-03-10T22:39:05.270Z,99010.10
2023-03-10T22:41:32.333Z,98997.63
2023-03-10T22:44:01.592Z,98999.16
2023-03-10T22:46:32.176Z,98994.70
2023-03-10T22:49:01.235Z,98987.46
2023-03-10T22:51:29.912Z,98991.06
2023-03-10T22:54:00.273Z,98995.79
2023-03-10T22:56:29.122Z,98991.72
2023-03-10T22:58:58.148Z,98991.75
2023-03-10T23:01:26.162Z,98996.16
2023-03-10T23:03:53.941Z,99001.67
2023-03-10T23:06:28.786Z,99002.20
2023-03-10T23:08:57.182Z,99004.16
2023-03-10T23:11:25.109Z,98999.20
2023-03-10T23:13:54.728Z,98999.40
2023-03-10T23:16:27.168Z,98991.46
2023-03-10T23:18:56.037Z,98982.99
2023-03-10T23:21:24.710Z,98982.31
2023-03-10T23:23:52.284Z,98988.06
2023-03-10T23:26:20.660Z,98978.02
2023-03-10T23:28:51.618Z,98972.38
2023-03-10T23:31:22.467Z,98978.17
2023-03-10T23:33:56.881Z,98971.98
2023-03-10T23:36:24.999Z,98971.74
2023-03-10T23:38:54.176Z,98975.31
2023-03-10T23:41:28.867Z,98970.97
2023-03-10T23:43:58.043Z,98963.10
2023-03-10T23:46:26.708Z,98963.78
2023-03-10T23:48:55.453Z,98966.79
2023-03-10T23:51:25.792Z,98965.09
2023-03-10T23:53:53.416Z,98955.58
2023-03-10T23:56:22.102Z,98953.88
2023-03-10T23:58:50.359Z,98941.54
